sensor_id;sensor_type;location;lat;lon;timestamp;temperature;humidity
5246;DHT22;54412;51.206;6.888;2023-11-21T00:00:19;10.10;99.90
5246;DHT22;54412;51.206;6.888;2023-11-21T00:02:45;10.00;99.90
5246;DHT22;54412;51.206;6.888;2023-11-21T00:05:12;10.10;99.90
5246;DHT22;54412;51.206;6.888;2023-11-21T00:07:40;10.10;99.90
5246;DHT22;54412;51.206;6.888;2023-11-21T00:10:07;10.00;99.90
5246;DHT22;54412;51.206;6.888;2023-11-21T00:12:34;10.00;99.90
5246;DHT22;54412;51.206;6.888;2023-11-21T00:15:00;9.90;99.90
5246;DHT22;54412;51.206;6.888;2023-11-21T00:17:27;9.80;99.90
5246;DHT22;54412;51.206;6.888;2023-11-21T00:19:53;9.80;99.90
5246;DHT22;54412;51.206;6.888;2023-11-21T00:22:19;9.90;99.90
5246;DHT22;54412;51.206;6.888;2023-11-21T00:24:45;9.90;99.90
5246;DHT22;54412;51.206;6.888;2023-11-21T00:27:12;9.90;99.90
5246;DHT22;54412;51.206;6.888;2023-11-21T00:29:37;9.80;99.90
5246;DHT22;54412;51.206;6.888;2023-11-21T00:32:07;9.80;99.90
5246;DHT22;54412;51.206;6.888;2023-11-21T00:34:33;9.80;99.90
5246;DHT22;54412;51.206;6.888;2023-11-21T00:36:58;9.90;99.90
5246;DHT22;54412;51.206;6.888;2023-11-21T00:39:24;9.90;99.90
5246;DHT22;54412;51.206;6.888;2023-11-21T00:41:51;9.80;99.90
5246;DHT22;54412;51.206;6.888;2023-11-21T00:44:17;9.80;99.90
5246;DHT22;54412;51.206;6.888;2023-11-21T00:46:43;9.80;99.90
5246;DHT22;54412;51.206;6.888;2023-11-21T00:49:08;9.90;99.90
5246;DHT22;54412;51.206;6.888;2023-11-21T00:51:34;9.90;99.90
5246;DHT22;54412;51.206;6.888;2023-11-21T00:54:00;9.90;99.90
5246;DHT22;54412;51.206;6.888;2023-11-21T00:56:26;9.90;99.90
5246;DHT22;54412;51.206;6.888;2023-11-21T00:58:52;9.90;99.90
5246;DHT22;54412;51.206;6.888;2023-11-21T01:01:19;10.00;99.90
5246;DHT22;54412;51.206;6.888;2023-11-21T01:03:46;9.90;99.90
5246;DHT22;54412;51.206;6.888;2023-11-21T01:06:12;10.00;99.90
5246;DHT22;54412;51.206;6.888;2023-11-21T01:08:38;10.00;99.90
5246;DHT22;54412;51.206;6.888;2023-11-21T01:11:04;9.90;99.90
5246;DHT22;54412;51.206;6.888;2023-11-21T01:13:33;10.00;99.90
5246;DHT22;54412;51.206;6.888;2023-11-21T01:15:58;10.00;99.90
5246;DHT22;54412;51.206;6.888;2023-11-21T01:18:24;10.00;99.90
5246;DHT22;54412;51.206;6.888;2023-11-21T01:20:51;10.00;99.90
5246;DHT22;54412;51.206;6.888;2023-11-21T01:23:18;9.90;99.90
5246;DHT22;54412;51.206;6.888;2023-11-21T01:25:44;9.90;99.90
5246;DHT22;54412;51.206;6.888;2023-11-21T01:28:10;9.90;99.90
5246;DHT22;54412;51.206;6.888;2023-11-21T01:30:36;9.80;99.90
5246;DHT22;54412;51.206;6.888;2023-11-21T01:33:02;9.70;99.90
5246;DHT22;54412;51.206;6.888;2023-11-21T01:35:29;9.80;99.90
5246;DHT22;54412;51.206;6.888;2023-11-21T01:37:54;9.80;99.90
5246;DHT22;54412;51.206;6.888;2023-11-21T01:40:20;9.70;99.90
5246;DHT22;54412;51.206;6.888;2023-11-21T01:42:46;9.70;99.90
5246;DHT22;54412;51.206;6.888;2023-11-21T01:45:13;9.70;99.90
5246;DHT22;54412;51.206;6.888;2023-11-21T01:47:41;9.80;99.90
5246;DHT22;54412;51.206;6.888;2023-11-21T01:50:08;9.70;99.90
5246;DHT22;54412;51.206;6.888;2023-11-21T01:52:39;9.70;99.90
5246;DHT22;54412;51.206;6.888;2023-11-21T01:55:08;9.70;99.90
5246;DHT22;54412;51.206;6.888;2023-11-21T01:57:36;9.60;99.90
5246;DHT22;54412;51.206;6.888;2023-11-21T02:00:05;9.60;99.90
5246;DHT22;54412;51.206;6.888;2023-11-21T02:02:42;9.70;99.90
5246;DHT22;54412;51.206;6.888;2023-11-21T02:05:16;9.60;99.90
5246;DHT22;54412;51.206;6.888;2023-11-21T02:07:44;9.60;99.90
5246;DHT22;54412;51.206;6.888;2023-11-21T02:10:13;9.60;99.90
5246;DHT22;54412;51.206;6.888;2023-11-21T02:12:41;9.70;99.90
5246;DHT22;54412;51.206;6.888;2023-11-21T02:15:08;9.60;99.90
5246;DHT22;54412;51.206;6.888;2023-11-21T02:17:43;9.70;99.90
5246;DHT22;54412;51.206;6.888;2023-11-21T02:20:12;9.60;99.90
5246;DHT22;54412;51.206;6.888;2023-11-21T02:22:41;9.70;99.90
5246;DHT22;54412;51.206;6.888;2023-11-21T02:25:08;9.60;99.90
5246;DHT22;54412;51.206;6.888;2023-11-21T02:27:34;9.70;99.90
5246;DHT22;54412;51.206;6.888;2023-11-21T02:30:00;9.70;99.90
5246;DHT22;54412;51.206;6.888;2023-11-21T02:32:26;9.70;99.90
5246;DHT22;54412;51.206;6.888;2023-11-21T02:34:52;9.70;99.90
5246;DHT22;54412;51.206;6.888;2023-11-21T02:37:21;9.70;99.90
5246;DHT22;54412;51.206;6.888;2023-11-21T02:39:47;9.70;99.90
5246;DHT22;54412;51.206;6.888;2023-11-21T02:42:12;9.70;99.90
5246;DHT22;54412;51.206;6.888;2023-11-21T02:44:38;9.70;99.90
5246;DHT22;54412;51.206;6.888;2023-11-21T02:47:04;9.60;99.90
5246;DHT22;54412;51.206;6.888;2023-11-21T02:49:29;9.60;99.90
5246;DHT22;54412;51.206;6.888;2023-11-21T02:51:56;9.70;99.90
5246;DHT22;54412;51.206;6.888;2023-11-21T02:54:22;9.70;99.90
5246;DHT22;54412;51.206;6.888;2023-11-21T02:56:48;9.80;99.90
5246;DHT22;54412;51.206;6.888;2023-11-21T02:59:15;9.80;99.90
5246;DHT22;54412;51.206;6.888;2023-11-21T03:01:41;9.60;99.90
5246;DHT22;54412;51.206;6.888;2023-11-21T03:04:07;9.60;99.90
5246;DHT22;54412;51.206;6.888;2023-11-21T03:06:32;9.60;99.90
5246;DHT22;54412;51.206;6.888;2023-11-21T03:08:59;9.60;99.90
5246;DHT22;54412;51.206;6.888;2023-11-21T03:11:25;9.60;99.90
5246;DHT22;54412;51.206;6.888;2023-11-21T03:13:50;9.60;99.90
5246;DHT22;54412;51.206;6.888;2023-11-21T03:16:16;9.70;99.90
5246;DHT22;54412;51.206;6.888;2023-11-21T03:18:42;9.70;99.90
5246;DHT22;54412;51.206;6.888;2023-11-21T03:21:08;9.70;99.90
5246;DHT22;54412;51.206;6.888;2023-11-21T03:23:36;9.70;99.90
5246;DHT22;54412;51.206;6.888;2023-11-21T03:26:03;9.70;99.90
5246;DHT22;54412;51.206;6.888;2023-11-21T03:28:29;9.60;99.90
5246;DHT22;54412;51.206;6.888;2023-11-21T03:30:55;9.60;99.90
5246;DHT22;54412;51.206;6.888;2023-11-21T03:33:22;9.70;99.90
5246;DHT22;54412;51.206;6.888;2023-11-21T03:35:48;9.80;99.90
5246;DHT22;54412;51.206;6.888;2023-11-21T03:38:14;9.80;99.90
5246;DHT22;54412;51.206;6.888;2023-11-21T03:40:41;9.80;99.90
5246;DHT22;54412;51.206;6.888;2023-11-21T03:43:07;9.80;99.90
5246;DHT22;54412;51.206;6.888;2023-11-21T03:45:33;9.70;99.90
5246;DHT22;54412;51.206;6.888;2023-11-21T03:47:58;9.70;99.90
5246;DHT22;54412;51.206;6.888;2023-11-21T03:50:28;9.70;99.90
5246;DHT22;54412;51.206;6.888;2023-11-21T03:52:54;9.70;99.90
5246;DHT22;54412;51.206;6.888;2023-11-21T03:55:20;9.80;99.90
5246;DHT22;54412;51.206;6.888;2023-11-21T03:57:45;9.80;99.90
5246;DHT22;54412;51.206;6.888;2023-11-21T04:00:11;9.80;99.90
5246;DHT22;54412;51.206;6.888;2023-11-21T04:02:38;9.90;99.90
5246;DHT22;54412;51.206;6.888;2023-11-21T04:05:05;9.80;99.90
5246;DHT22;54412;51.206;6.888;2023-11-21T04:07:32;9.80;99.90
5246;DHT22;54412;51.206;6.888;2023-11-21T04:09:58;9.90;99.90
5246;DHT22;54412;51.206;6.888;2023-11-21T04:12:24;9.80;99.90
5246;DHT22;54412;51.206;6.888;2023-11-21T04:14:50;9.90;99.90
5246;DHT22;54412;51.206;6.888;2023-11-21T04:17:18;9.80;99.90
5246;DHT22;54412;51.206;6.888;2023-11-21T04:19:44;9.80;99.90
5246;DHT22;54412;51.206;6.888;2023-11-21T04:22:11;9.70;99.90
5246;DHT22;54412;51.206;6.888;2023-11-21T04:24:37;9.70;99.90
5246;DHT22;54412;51.206;6.888;2023-11-21T04:27:03;9.70;99.90
5246;DHT22;54412;51.206;6.888;2023-11-21T04:29:28;9.70;99.90
5246;DHT22;54412;51.206;6.888;2023-11-21T04:31:55;9.70;99.90
5246;DHT22;54412;51.206;6.888;2023-11-21T04:34:20;9.70;99.90
5246;DHT22;54412;51.206;6.888;2023-11-21T04:36:46;9.70;99.90
5246;DHT22;54412;51.206;6.888;2023-11-21T04:39:12;9.70;99.90
5246;DHT22;54412;51.206;6.888;2023-11-21T04:41:37;9.70;99.90
5246;DHT22;54412;51.206;6.888;2023-11-21T04:44:05;9.70;99.90
5246;DHT22;54412;51.206;6.888;2023-11-21T04:46:31;9.60;99.90
5246;DHT22;54412;51.206;6.888;2023-11-21T04:48:58;9.60;99.90
5246;DHT22;54412;51.206;6.888;2023-11-21T04:51:24;9.50;99.90
5246;DHT22;54412;51.206;6.888;2023-11-21T04:53:49;9.50;99.90
5246;DHT22;54412;51.206;6.888;2023-11-21T04:56:15;9.50;99.90
5246;DHT22;54412;51.206;6.888;2023-11-21T04:58:44;9.50;99.90
5246;DHT22;54412;51.206;6.888;2023-11-21T05:01:10;9.50;99.90
5246;DHT22;54412;51.206;6.888;2023-11-21T05:03:37;9.50;99.90
5246;DHT22;54412;51.206;6.888;2023-11-21T05:06:04;9.50;99.90
5246;DHT22;54412;51.206;6.888;2023-11-21T05:08:30;9.50;99.90
5246;DHT22;54412;51.206;6.888;2023-11-21T05:10:56;9.50;99.90
5246;DHT22;54412;51.206;6.888;2023-11-21T05:13:22;9.50;99.90
5246;DHT22;54412;51.206;6.888;2023-11-21T05:15:54;9.60;99.90
5246;DHT22;54412;51.206;6.888;2023-11-21T05:18:20;9.50;99.90
5246;DHT22;54412;51.206;6.888;2023-11-21T05:20:46;9.50;99.90
5246;DHT22;54412;51.206;6.888;2023-11-21T05:23:12;9.50;99.90
5246;DHT22;54412;51.206;6.888;2023-11-21T05:25:38;9.50;99.90
5246;DHT22;54412;51.206;6.888;2023-11-21T05:28:04;9.50;99.90
5246;DHT22;54412;51.206;6.888;2023-11-21T05:30:29;9.50;99.90
5246;DHT22;54412;51.206;6.888;2023-11-21T05:32:55;9.60;99.90
5246;DHT22;54412;51.206;6.888;2023-11-21T05:35:21;9.50;99.90
5246;DHT22;54412;51.206;6.888;2023-11-21T05:37:47;9.50;99.90
5246;DHT22;54412;51.206;6.888;2023-11-21T05:40:13;9.50;99.90
5246;DHT22;54412;51.206;6.888;2023-11-21T05:42:39;9.50;99.90
5246;DHT22;54412;51.206;6.888;2023-11-21T05:45:07;9.60;99.90
5246;DHT22;54412;51.206;6.888;2023-11-21T05:50:11;9.60;99.90
5246;DHT22;54412;51.206;6.888;2023-11-21T05:52:40;9.60;99.90
5246;DHT22;54412;51.206;6.888;2023-11-21T05:55:10;9.60;99.90
5246;DHT22;54412;51.206;6.888;2023-11-21T05:57:36;9.60;99.90
5246;DHT22;54412;51.206;6.888;2023-11-21T06:00:07;9.60;99.90
5246;DHT22;54412;51.206;6.888;2023-11-21T06:02:37;9.60;99.90
5246;DHT22;54412;51.206;6.888;2023-11-21T06:05:05;9.60;99.90
5246;DHT22;54412;51.206;6.888;2023-11-21T06:07:32;9.60;99.90
5246;DHT22;54412;51.206;6.888;2023-11-21T06:09:57;9.60;99.90
5246;DHT22;54412;51.206;6.888;2023-11-21T06:12:23;9.60;99.90
5246;DHT22;54412;51.206;6.888;2023-11-21T06:14:49;9.60;99.90
5246;DHT22;54412;51.206;6.888;2023-11-21T06:17:15;9.60;99.90
5246;DHT22;54412;51.206;6.888;2023-11-21T06:19:40;9.60;99.90
5246;DHT22;54412;51.206;6.888;2023-11-21T06:22:06;9.60;99.90
5246;DHT22;54412;51.206;6.888;2023-11-21T06:24:32;9.50;99.90
5246;DHT22;54412;51.206;6.888;2023-11-21T06:26:57;9.40;99.90
5246;DHT22;54412;51.206;6.888;2023-11-21T06:29:24;9.50;99.90
5246;DHT22;54412;51.206;6.888;2023-11-21T06:31:49;9.50;99.90
5246;DHT22;54412;51.206;6.888;2023-11-21T06:34:15;9.60;99.90
5246;DHT22;54412;51.206;6.888;2023-11-21T06:36:40;9.50;99.90
5246;DHT22;54412;51.206;6.888;2023-11-21T06:39:06;9.50;99.90
5246;DHT22;54412;51.206;6.888;2023-11-21T06:41:34;9.50;99.90
5246;DHT22;54412;51.206;6.888;2023-11-21T06:44:00;9.60;99.90
5246;DHT22;54412;51.206;6.888;2023-11-21T06:46:25;9.60;99.90
5246;DHT22;54412;51.206;6.888;2023-11-21T06:48:51;9.60;99.90
5246;DHT22;54412;51.206;6.888;2023-11-21T06:51:17;9.60;99.90
5246;DHT22;54412;51.206;6.888;2023-11-21T06:53:43;9.60;99.90
5246;DHT22;54412;51.206;6.888;2023-11-21T06:56:18;9.60;99.90
5246;DHT22;54412;51.206;6.888;2023-11-21T06:58:46;9.60;99.90
5246;DHT22;54412;51.206;6.888;2023-11-21T07:01:13;9.70;99.90
5246;DHT22;54412;51.206;6.888;2023-11-21T07:03:39;9.70;99.90
5246;DHT22;54412;51.206;6.888;2023-11-21T07:06:05;9.60;99.90
5246;DHT22;54412;51.206;6.888;2023-11-21T07:12:02;9.60;99.90
5246;DHT22;54412;51.206;6.888;2023-11-21T07:14:29;9.70;99.90
5246;DHT22;54412;51.206;6.888;2023-11-21T07:16:54;9.70;99.90
5246;DHT22;54412;51.206;6.888;2023-11-21T07:19:20;9.70;99.90
5246;DHT22;54412;51.206;6.888;2023-11-21T07:21:47;9.70;99.90
5246;DHT22;54412;51.206;6.888;2023-11-21T07:24:16;9.60;99.90
5246;DHT22;54412;51.206;6.888;2023-11-21T07:26:42;9.70;99.90
5246;DHT22;54412;51.206;6.888;2023-11-21T07:29:08;9.70;99.90
5246;DHT22;54412;51.206;6.888;2023-11-21T07:31:34;9.80;99.90
5246;DHT22;54412;51.206;6.888;2023-11-21T07:34:00;9.90;99.90
5246;DHT22;54412;51.206;6.888;2023-11-21T07:36:26;9.90;99.90
5246;DHT22;54412;51.206;6.888;2023-11-21T07:38:52;9.80;99.90
5246;DHT22;54412;51.206;6.888;2023-11-21T07:41:18;9.80;99.90
5246;DHT22;54412;51.206;6.888;2023-11-21T07:43:45;9.80;99.90
5246;DHT22;54412;51.206;6.888;2023-11-21T07:46:11;9.80;99.90
5246;DHT22;54412;51.206;6.888;2023-11-21T07:48:41;9.70;99.90
5246;DHT22;54412;51.206;6.888;2023-11-21T07:51:07;9.80;99.90
5246;DHT22;54412;51.206;6.888;2023-11-21T07:53:34;9.80;99.90
5246;DHT22;54412;51.206;6.888;2023-11-21T07:56:08;9.80;99.90
5246;DHT22;54412;51.206;6.888;2023-11-21T07:58:35;9.80;99.90
5246;DHT22;54412;51.206;6.888;2023-11-21T08:01:03;9.80;99.90
5246;DHT22;54412;51.206;6.888;2023-11-21T08:03:29;9.80;99.90
5246;DHT22;54412;51.206;6.888;2023-11-21T08:05:59;9.80;99.90
5246;DHT22;54412;51.206;6.888;2023-11-21T08:08:25;9.80;99.90
5246;DHT22;54412;51.206;6.888;2023-11-21T08:10:52;9.80;99.90
5246;DHT22;54412;51.206;6.888;2023-11-21T08:13:26;9.80;99.90
5246;DHT22;54412;51.206;6.888;2023-11-21T08:15:57;9.80;99.90
5246;DHT22;54412;51.206;6.888;2023-11-21T08:18:30;9.80;99.90
5246;DHT22;54412;51.206;6.888;2023-11-21T08:20:56;9.90;99.90
5246;DHT22;54412;51.206;6.888;2023-11-21T08:23:22;9.90;99.90
5246;DHT22;54412;51.206;6.888;2023-11-21T08:25:52;10.00;99.90
5246;DHT22;54412;51.206;6.888;2023-11-21T08:28:19;9.90;99.90
5246;DHT22;54412;51.206;6.888;2023-11-21T08:30:51;9.90;99.90
5246;DHT22;54412;51.206;6.888;2023-11-21T08:33:18;10.00;99.90
5246;DHT22;54412;51.206;6.888;2023-11-21T08:35:44;10.00;99.90
5246;DHT22;54412;51.206;6.888;2023-11-21T08:38:11;9.90;99.90
5246;DHT22;54412;51.206;6.888;2023-11-21T08:40:37;10.10;99.90
5246;DHT22;54412;51.206;6.888;2023-11-21T08:43:03;10.00;99.90
5246;DHT22;54412;51.206;6.888;2023-11-21T08:45:33;10.10;99.90
5246;DHT22;54412;51.206;6.888;2023-11-21T08:48:00;10.10;99.90
5246;DHT22;54412;51.206;6.888;2023-11-21T08:50:26;10.20;99.90
5246;DHT22;54412;51.206;6.888;2023-11-21T08:52:51;10.10;99.90
5246;DHT22;54412;51.206;6.888;2023-11-21T08:55:17;10.10;99.90
5246;DHT22;54412;51.206;6.888;2023-11-21T08:57:45;10.20;99.90
5246;DHT22;54412;51.206;6.888;2023-11-21T09:00:12;10.20;99.90
5246;DHT22;54412;51.206;6.888;2023-11-21T09:02:41;10.20;99.90
5246;DHT22;54412;51.206;6.888;2023-11-21T09:05:10;10.20;99.90
5246;DHT22;54412;51.206;6.888;2023-11-21T09:07:37;10.30;99.90
5246;DHT22;54412;51.206;6.888;2023-11-21T09:10:04;10.30;99.90
5246;DHT22;54412;51.206;6.888;2023-11-21T09:12:33;10.30;99.90
5246;DHT22;54412;51.206;6.888;2023-11-21T09:15:03;10.20;99.90
5246;DHT22;54412;51.206;6.888;2023-11-21T09:17:30;10.30;99.90
5246;DHT22;54412;51.206;6.888;2023-11-21T09:19:56;10.30;99.90
5246;DHT22;54412;51.206;6.888;2023-11-21T09:22:22;10.30;99.90
5246;DHT22;54412;51.206;6.888;2023-11-21T09:24:50;10.40;99.90
5246;DHT22;54412;51.206;6.888;2023-11-21T09:27:16;10.50;99.90
5246;DHT22;54412;51.206;6.888;2023-11-21T09:29:42;10.50;99.90
5246;DHT22;54412;51.206;6.888;2023-11-21T09:32:08;10.50;99.90
5246;DHT22;54412;51.206;6.888;2023-11-21T09:34:39;10.50;99.90
5246;DHT22;54412;51.206;6.888;2023-11-21T09:37:05;10.50;99.90
5246;DHT22;54412;51.206;6.888;2023-11-21T09:39:32;10.60;99.90
5246;DHT22;54412;51.206;6.888;2023-11-21T09:42:09;10.60;99.90
5246;DHT22;54412;51.206;6.888;2023-11-21T09:47:14;10.70;99.90
5246;DHT22;54412;51.206;6.888;2023-11-21T09:49:44;10.70;99.90
5246;DHT22;54412;51.206;6.888;2023-11-21T09:52:18;10.60;99.90
5246;DHT22;54412;51.206;6.888;2023-11-21T09:54:51;10.60;99.90
5246;DHT22;54412;51.206;6.888;2023-11-21T09:57:21;10.60;99.90
5246;DHT22;54412;51.206;6.888;2023-11-21T09:59:52;10.60;99.90
5246;DHT22;54412;51.206;6.888;2023-11-21T10:02:28;10.60;99.90
5246;DHT22;54412;51.206;6.888;2023-11-21T10:04:59;10.60;99.90
5246;DHT22;54412;51.206;6.888;2023-11-21T10:07:25;10.60;99.90
5246;DHT22;54412;51.206;6.888;2023-11-21T10:09:53;10.60;99.90
5246;DHT22;54412;51.206;6.888;2023-11-21T10:12:20;10.60;99.90
5246;DHT22;54412;51.206;6.888;2023-11-21T10:14:48;10.60;99.90
5246;DHT22;54412;51.206;6.888;2023-11-21T10:17:15;10.60;99.90
5246;DHT22;54412;51.206;6.888;2023-11-21T10:19:46;10.60;99.90
5246;DHT22;54412;51.206;6.888;2023-11-21T10:22:15;10.70;99.90
5246;DHT22;54412;51.206;6.888;2023-11-21T10:24:42;10.70;99.90
5246;DHT22;54412;51.206;6.888;2023-11-21T10:27:09;10.70;99.90
5246;DHT22;54412;51.206;6.888;2023-11-21T10:33:16;10.70;99.90
5246;DHT22;54412;51.206;6.888;2023-11-21T10:38:07;10.80;99.90
5246;DHT22;54412;51.206;6.888;2023-11-21T10:40:39;10.80;99.90
5246;DHT22;54412;51.206;6.888;2023-11-21T10:43:07;10.80;99.90
5246;DHT22;54412;51.206;6.888;2023-11-21T10:45:35;10.80;99.90
5246;DHT22;54412;51.206;6.888;2023-11-21T10:48:13;10.70;99.90
5246;DHT22;54412;51.206;6.888;2023-11-21T10:50:46;10.70;99.90
5246;DHT22;54412;51.206;6.888;2023-11-21T10:53:13;10.70;99.90
5246;DHT22;54412;51.206;6.888;2023-11-21T10:55:39;10.70;99.90
5246;DHT22;54412;51.206;6.888;2023-11-21T10:58:05;10.70;99.90
5246;DHT22;54412;51.206;6.888;2023-11-21T11:00:33;10.70;99.90
5246;DHT22;54412;51.206;6.888;2023-11-21T11:03:00;10.70;99.90
5246;DHT22;54412;51.206;6.888;2023-11-21T11:05:27;10.70;99.90
5246;DHT22;54412;51.206;6.888;2023-11-21T11:08:08;10.70;99.90
5246;DHT22;54412;51.206;6.888;2023-11-21T11:10:37;10.70;99.90
5246;DHT22;54412;51.206;6.888;2023-11-21T11:13:04;10.70;99.90
5246;DHT22;54412;51.206;6.888;2023-11-21T11:15:32;10.70;99.90
5246;DHT22;54412;51.206;6.888;2023-11-21T11:17:59;10.70;99.90
5246;DHT22;54412;51.206;6.888;2023-11-21T11:20:36;10.70;99.90
5246;DHT22;54412;51.206;6.888;2023-11-21T11:23:14;10.70;99.90
5246;DHT22;54412;51.206;6.888;2023-11-21T11:26:29;10.80;99.90
5246;DHT22;54412;51.206;6.888;2023-11-21T11:32:07;10.80;99.90
5246;DHT22;54412;51.206;6.888;2023-11-21T11:34:47;10.80;99.90
5246;DHT22;54412;51.206;6.888;2023-11-21T11:37:19;10.70;99.90
5246;DHT22;54412;51.206;6.888;2023-11-21T11:39:45;10.70;99.90
5246;DHT22;54412;51.206;6.888;2023-11-21T11:42:16;10.80;99.90
5246;DHT22;54412;51.206;6.888;2023-11-21T11:50:00;10.90;99.90
5246;DHT22;54412;51.206;6.888;2023-11-21T11:52:48;11.00;99.90
5246;DHT22;54412;51.206;6.888;2023-11-21T11:55:21;11.00;99.90
5246;DHT22;54412;51.206;6.888;2023-11-21T11:57:53;11.00;99.90
5246;DHT22;54412;51.206;6.888;2023-11-21T12:02:57;11.00;99.90
5246;DHT22;54412;51.206;6.888;2023-11-21T12:05:25;11.00;99.90
5246;DHT22;54412;51.206;6.888;2023-11-21T12:07:57;11.00;99.90
5246;DHT22;54412;51.206;6.888;2023-11-21T12:10:31;11.00;99.90
5246;DHT22;54412;51.206;6.888;2023-11-21T12:13:06;11.10;99.90
5246;DHT22;54412;51.206;6.888;2023-11-21T12:15:37;11.00;99.90
5246;DHT22;54412;51.206;6.888;2023-11-21T12:18:03;11.00;99.90
5246;DHT22;54412;51.206;6.888;2023-11-21T12:20:30;11.00;99.90
5246;DHT22;54412;51.206;6.888;2023-11-21T12:22:58;11.00;99.90
5246;DHT22;54412;51.206;6.888;2023-11-21T12:25:30;11.00;99.90
5246;DHT22;54412;51.206;6.888;2023-11-21T12:27:59;11.00;99.90
5246;DHT22;54412;51.206;6.888;2023-11-21T12:30:28;11.00;99.90
5246;DHT22;54412;51.206;6.888;2023-11-21T12:32:57;11.00;99.90
5246;DHT22;54412;51.206;6.888;2023-11-21T12:35:25;11.00;99.90
5246;DHT22;54412;51.206;6.888;2023-11-21T12:37:53;11.00;99.90
5246;DHT22;54412;51.206;6.888;2023-11-21T12:40:20;11.00;99.90
5246;DHT22;54412;51.206;6.888;2023-11-21T12:42:51;11.10;99.90
5246;DHT22;54412;51.206;6.888;2023-11-21T12:45:22;11.20;99.90
5246;DHT22;54412;51.206;6.888;2023-11-21T12:48:01;11.20;99.90
5246;DHT22;54412;51.206;6.888;2023-11-21T12:50:30;11.20;99.90
5246;DHT22;54412;51.206;6.888;2023-11-21T12:53:01;11.20;99.90
5246;DHT22;54412;51.206;6.888;2023-11-21T12:55:32;11.30;99.90
5246;DHT22;54412;51.206;6.888;2023-11-21T12:58:02;11.30;99.90
5246;DHT22;54412;51.206;6.888;2023-11-21T13:00:43;11.30;99.90
5246;DHT22;54412;51.206;6.888;2023-11-21T13:03:12;11.30;99.90
5246;DHT22;54412;51.206;6.888;2023-11-21T13:05:46;11.30;99.90
5246;DHT22;54412;51.206;6.888;2023-11-21T13:08:16;11.50;99.90
5246;DHT22;54412;51.206;6.888;2023-11-21T13:10:46;11.40;99.90
5246;DHT22;54412;51.206;6.888;2023-11-21T13:13:15;11.40;99.90
5246;DHT22;54412;51.206;6.888;2023-11-21T13:15:54;11.30;99.90
5246;DHT22;54412;51.206;6.888;2023-11-21T13:18:30;11.30;99.90
5246;DHT22;54412;51.206;6.888;2023-11-21T13:21:03;11.30;99.90
5246;DHT22;54412;51.206;6.888;2023-11-21T13:23:39;11.30;99.90
5246;DHT22;54412;51.206;6.888;2023-11-21T13:26:07;11.30;99.90
5246;DHT22;54412;51.206;6.888;2023-11-21T13:28:34;11.30;99.90
5246;DHT22;54412;51.206;6.888;2023-11-21T13:31:04;11.30;99.90
5246;DHT22;54412;51.206;6.888;2023-11-21T13:33:47;11.40;99.90
5246;DHT22;54412;51.206;6.888;2023-11-21T13:36:20;11.40;99.90
5246;DHT22;54412;51.206;6.888;2023-11-21T13:38:50;11.40;99.90
5246;DHT22;54412;51.206;6.888;2023-11-21T13:41:18;11.40;99.90
5246;DHT22;54412;51.206;6.888;2023-11-21T13:43:44;11.50;99.90
5246;DHT22;54412;51.206;6.888;2023-11-21T13:46:15;11.40;99.90
5246;DHT22;54412;51.206;6.888;2023-11-21T13:48:47;11.40;99.90
5246;DHT22;54412;51.206;6.888;2023-11-21T13:51:20;11.40;99.90
5246;DHT22;54412;51.206;6.888;2023-11-21T13:53:54;11.30;99.90
5246;DHT22;54412;51.206;6.888;2023-11-21T13:56:21;11.40;99.90
5246;DHT22;54412;51.206;6.888;2023-11-21T13:58:49;11.40;99.90
5246;DHT22;54412;51.206;6.888;2023-11-21T14:01:24;11.40;99.90
5246;DHT22;54412;51.206;6.888;2023-11-21T14:04:01;11.40;99.90
5246;DHT22;54412;51.206;6.888;2023-11-21T14:06:48;11.40;99.90
5246;DHT22;54412;51.206;6.888;2023-11-21T14:09:23;11.30;99.90
5246;DHT22;54412;51.206;6.888;2023-11-21T14:11:58;11.30;99.90
5246;DHT22;54412;51.206;6.888;2023-11-21T14:14:26;11.30;99.90
5246;DHT22;54412;51.206;6.888;2023-11-21T14:16:55;11.10;99.90
5246;DHT22;54412;51.206;6.888;2023-11-21T14:19:22;11.20;99.90
5246;DHT22;54412;51.206;6.888;2023-11-21T14:21:52;11.10;99.90
5246;DHT22;54412;51.206;6.888;2023-11-21T14:24:18;11.20;99.90
5246;DHT22;54412;51.206;6.888;2023-11-21T14:26:45;11.10;99.90
5246;DHT22;54412;51.206;6.888;2023-11-21T14:29:12;11.10;99.90
5246;DHT22;54412;51.206;6.888;2023-11-21T14:31:41;11.10;99.90
5246;DHT22;54412;51.206;6.888;2023-11-21T14:34:07;11.10;99.90
5246;DHT22;54412;51.206;6.888;2023-11-21T14:36:34;11.10;99.90
5246;DHT22;54412;51.206;6.888;2023-11-21T14:39:02;11.10;99.90
5246;DHT22;54412;51.206;6.888;2023-11-21T14:41:32;11.10;99.90
5246;DHT22;54412;51.206;6.888;2023-11-21T14:44:00;11.10;99.90
5246;DHT22;54412;51.206;6.888;2023-11-21T14:46:28;11.10;99.90
5246;DHT22;54412;51.206;6.888;2023-11-21T14:48:54;11.10;99.90
5246;DHT22;54412;51.206;6.888;2023-11-21T14:51:45;11.00;99.90
5246;DHT22;54412;51.206;6.888;2023-11-21T14:54:32;11.00;99.90
5246;DHT22;54412;51.206;6.888;2023-11-21T14:57:10;11.00;99.90
5246;DHT22;54412;51.206;6.888;2023-11-21T14:59:44;11.00;99.90
5246;DHT22;54412;51.206;6.888;2023-11-21T15:02:20;11.00;99.90
5246;DHT22;54412;51.206;6.888;2023-11-21T15:04:48;11.00;99.90
5246;DHT22;54412;51.206;6.888;2023-11-21T15:07:17;11.00;99.90
5246;DHT22;54412;51.206;6.888;2023-11-21T15:09:43;11.00;99.90
5246;DHT22;54412;51.206;6.888;2023-11-21T15:12:11;11.00;99.90
5246;DHT22;54412;51.206;6.888;2023-11-21T15:14:50;11.00;99.90
5246;DHT22;54412;51.206;6.888;2023-11-21T15:17:22;11.00;99.90
5246;DHT22;54412;51.206;6.888;2023-11-21T15:19:51;10.90;99.90
5246;DHT22;54412;51.206;6.888;2023-11-21T15:22:17;10.90;99.90
5246;DHT22;54412;51.206;6.888;2023-11-21T15:24:44;10.90;99.90
5246;DHT22;54412;51.206;6.888;2023-11-21T15:27:13;10.90;99.90
5246;DHT22;54412;51.206;6.888;2023-11-21T15:29:39;10.80;99.90
5246;DHT22;54412;51.206;6.888;2023-11-21T15:32:06;10.80;99.90
5246;DHT22;54412;51.206;6.888;2023-11-21T15:34:34;10.90;99.90
5246;DHT22;54412;51.206;6.888;2023-11-21T15:37:00;10.80;99.90
5246;DHT22;54412;51.206;6.888;2023-11-21T15:39:26;10.80;99.90
5246;DHT22;54412;51.206;6.888;2023-11-21T15:41:56;10.80;99.90
5246;DHT22;54412;51.206;6.888;2023-11-21T15:44:23;10.80;99.90
5246;DHT22;54412;51.206;6.888;2023-11-21T15:46:51;10.80;99.90
5246;DHT22;54412;51.206;6.888;2023-11-21T15:49:18;10.80;99.90
5246;DHT22;54412;51.206;6.888;2023-11-21T15:51:47;10.80;99.90
5246;DHT22;54412;51.206;6.888;2023-11-21T15:54:20;10.80;99.90
5246;DHT22;54412;51.206;6.888;2023-11-21T15:56:47;10.80;99.90
5246;DHT22;54412;51.206;6.888;2023-11-21T15:59:15;10.70;99.90
5246;DHT22;54412;51.206;6.888;2023-11-21T16:01:44;10.80;99.90
5246;DHT22;54412;51.206;6.888;2023-11-21T16:04:13;10.70;99.90
5246;DHT22;54412;51.206;6.888;2023-11-21T16:06:47;10.60;99.90
5246;DHT22;54412;51.206;6.888;2023-11-21T16:09:13;10.60;99.90
5246;DHT22;54412;51.206;6.888;2023-11-21T16:11:57;10.70;99.90
5246;DHT22;54412;51.206;6.888;2023-11-21T16:14:34;10.70;99.90
5246;DHT22;54412;51.206;6.888;2023-11-21T16:17:04;10.70;99.90
5246;DHT22;54412;51.206;6.888;2023-11-21T16:19:33;10.70;99.90
5246;DHT22;54412;51.206;6.888;2023-11-21T16:22:00;10.70;99.90
5246;DHT22;54412;51.206;6.888;2023-11-21T16:24:26;10.70;99.90
5246;DHT22;54412;51.206;6.888;2023-11-21T16:26:53;10.60;99.90